Time;durP1;ratioP1;P1;durP2;ratioP2;P2;SDS_P1;SDS_P2;PMS_P1;PMS_P2;Temp;Humidity;BMP_temperature;BMP_pressure;BME280_temperature;BME280_humidity;BME280_pressure;Samples;Min_cycle;Max_cycle;Signal;HPM_P1;HPM_P2
2022/10/30 00:00:30;;;;;;;1999.90;999.90;;;15.40;99.90;;;;;;5033194;28;20022;-84
2022/10/30 00:02:56;;;;;;;1999.90;999.90;;;15.30;99.90;;;;;;5034044;28;20465;-84
2022/10/30 00:05:22;;;;;;;1999.90;999.90;;;15.30;99.90;;;;;;5021298;28;20056;-83
2022/10/30 00:07:48;;;;;;;1999.90;999.90;;;15.20;99.90;;;;;;5038764;28;20201;-84
2022/10/30 00:10:15;;;;;;;1999.90;999.90;;;15.20;99.90;;;;;;5032720;28;20029;-84
2022/10/30 00:12:41;;;;;;;1999.90;999.90;;;15.20;99.90;;;;;;5032503;28;20374;-84
2022/10/30 00:15:08;;;;;;;1999.90;999.90;;;15.20;99.90;;;;;;5034175;28;20032;-84
2022/10/30 00:17:34;;;;;;;1999.90;999.90;;;15.20;99.90;;;;;;5015792;28;20048;-84
2022/10/30 00:19:59;;;;;;;1999.90;999.90;;;15.20;99.90;;;;;;5013178;28;20463;-83
2022/10/30 00:22:25;;;;;;;1999.90;999.90;;;15.30;99.90;;;;;;4995064;28;20038;-83
2022/10/30 00:24:51;;;;;;;1999.90;999.90;;;15.20;99.90;;;;;;5012050;28;20113;-83
2022/10/30 00:27:17;;;;;;;1999.90;999.90;;;15.20;99.90;;;;;;5014532;28;20033;-84
2022/10/30 00:29:43;;;;;;;1999.90;999.90;;;15.20;99.90;;;;;;5014287;28;20030;-84
2022/10/30 00:32:09;;;;;;;1999.90;999.90;;;15.20;99.90;;;;;;5013100;28;20042;-84
2022/10/30 00:34:35;;;;;;;1999.90;999.90;;;15.20;99.90;;;;;;5012288;28;20022;-84
2022/10/30 00:37:00;;;;;;;1999.90;999.90;;;15.20;99.90;;;;;;5021317;28;20025;-84
2022/10/30 00:39:26;;;;;;;1999.90;999.90;;;15.10;99.90;;;;;;4994995;28;20029;-84
2022/10/30 00:41:51;;;;;;;1999.90;999.90;;;15.10;99.90;;;;;;5013110;28;20033;-84
2022/10/30 00:44:49;;;;;;;1999.90;999.90;;;15.20;99.90;;;;;;4997455;28;20029;-84
2022/10/30 00:47:46;;;;;;;1999.90;999.90;;;15.20;99.90;;;;;;5012653;28;20030;-84
2022/10/30 00:50:11;;;;;;;1999.90;999.90;;;15.10;99.90;;;;;;4982423;28;20034;-84
2022/10/30 00:52:49;;;;;;;1999.90;999.90;;;15.20;99.90;;;;;;5012152;28;20072;-84
2022/10/30 00:55:26;;;;;;;1999.90;999.90;;;15.20;99.90;;;;;;5014523;28;20507;-84
2022/10/30 00:57:52;;;;;;;1999.90;999.90;;;15.20;99.90;;;;;;5032411;28;20025;-84
2022/10/30 01:00:20;;;;;;;1999.90;999.90;;;15.20;99.90;;;;;;5032469;28;20017;-84
2022/10/30 01:02:48;;;;;;;1999.90;999.90;;;15.20;99.90;;;;;;5032345;28;20457;-84
2022/10/30 01:05:16;;;;;;;1999.90;999.90;;;15.20;99.90;;;;;;5014552;28;20025;-84
2022/10/30 01:07:42;;;;;;;1999.90;999.90;;;15.20;99.90;;;;;;5014387;28;20025;-84
2022/10/30 01:10:08;;;;;;;1999.90;999.90;;;15.30;99.90;;;;;;5032416;28;20026;-84
2022/10/30 01:12:34;;;;;;;1999.90;999.90;;;15.30;99.90;;;;;;5031798;28;20025;-83
2022/10/30 01:15:01;;;;;;;1999.90;999.90;;;15.30;99.90;;;;;;5027169;28;20014;-83
2022/10/30 01:17:35;;;;;;;1999.90;999.90;;;15.30;99.90;;;;;;4994143;28;20029;-84
2022/10/30 01:20:21;;;;;;;1999.90;999.90;;;15.30;99.90;;;;;;5012323;28;20096;-84
2022/10/30 01:23:02;;;;;;;1999.90;999.90;;;15.20;99.90;;;;;;4993617;28;20132;-84
2022/10/30 01:25:36;;;;;;;1999.90;999.90;;;15.20;99.90;;;;;;5011505;28;20448;-84
2022/10/30 01:28:20;;;;;;;1999.90;999.90;;;15.10;99.90;;;;;;5012498;28;20033;-84
2022/10/30 01:30:56;;;;;;;1999.90;999.90;;;15.10;99.90;;;;;;5012134;28;20034;-84
2022/10/30 01:33:47;;;;;;;1999.90;999.90;;;15.10;99.90;;;;;;5012014;28;20034;-84
2022/10/30 01:36:25;;;;;;;1999.90;999.90;;;15.10;99.90;;;;;;5024970;28;20212;-84
2022/10/30 01:39:06;;;;;;;1999.90;999.90;;;15.00;99.90;;;;;;5014028;28;20120;-84
2022/10/30 01:41:32;;;;;;;1999.90;999.90;;;15.00;99.90;;;;;;5031898;28;20086;-83
2022/10/30 01:44:04;;;;;;;1999.90;999.90;;;14.90;99.90;;;;;;5032109;28;20117;-84
2022/10/30 01:46:59;;;;;;;1999.90;999.90;;;14.90;99.90;;;;;;5032447;28;20405;-83
2022/10/30 01:49:43;;;;;;;1999.90;999.90;;;14.90;99.90;;;;;;5035620;28;20495;-84
2022/10/30 01:52:38;;;;;;;1999.90;999.90;;;14.90;99.90;;;;;;5035487;28;20079;-84
2022/10/30 01:55:40;;;;;;;1999.90;999.90;;;14.90;99.90;;;;;;5030584;28;20060;-84
2022/10/30 01:58:23;;;;;;;1999.90;999.90;;;14.80;99.90;;;;;;5016088;28;20026;-84
2022/10/30 02:00:54;;;;;;;1999.90;999.90;;;14.90;99.90;;;;;;5015688;28;20021;-84
2022/10/30 02:03:21;;;;;;;1999.90;999.90;;;14.90;99.90;;;;;;4997937;28;20041;-84
2022/10/30 02:05:51;;;;;;;1999.90;999.90;;;14.90;99.90;;;;;;5015598;28;20029;-84
2022/10/30 02:08:17;;;;;;;1999.90;999.90;;;14.90;99.90;;;;;;5015714;28;20038;-84
2022/10/30 02:10:45;;;;;;;1999.90;999.90;;;14.90;99.90;;;;;;4997486;28;20040;-83
2022/10/30 02:13:11;;;;;;;1999.90;999.90;;;14.90;99.90;;;;;;4996595;28;20405;-84
2022/10/30 02:15:37;;;;;;;1999.90;999.90;;;14.90;99.90;;;;;;4998306;28;20029;-84
2022/10/30 02:18:03;;;;;;;1999.90;999.90;;;14.90;99.90;;;;;;5015235;28;20033;-83
2022/10/30 02:20:29;;;;;;;1999.90;999.90;;;14.90;99.90;;;;;;5014890;28;20069;-84
2022/10/30 02:22:55;;;;;;;1999.90;999.90;;;14.90;99.90;;;;;;5014834;28;20049;-84
2022/10/30 02:25:21;;;;;;;1999.90;999.90;;;14.90;99.90;;;;;;4997528;28;20030;-84
2022/10/30 02:27:47;;;;;;;1999.90;999.90;;;14.80;99.90;;;;;;4997003;28;20370;-83
2022/10/30 02:30:12;;;;;;;1999.90;999.90;;;14.90;99.90;;;;;;4997681;28;20072;-84
2022/10/30 02:32:38;;;;;;;1999.90;999.90;;;14.80;99.90;;;;;;5014847;28;20499;-83
2022/10/30 02:35:04;;;;;;;1999.90;999.90;;;14.80;99.90;;;;;;5022214;28;20025;-84
2022/10/30 02:37:34;;;;;;;1999.90;999.90;;;14.80;99.90;;;;;;5034439;28;20452;-83
2022/10/30 02:40:03;;;;;;;1999.90;999.90;;;14.80;99.90;;;;;;5035106;28;20026;-84
2022/10/30 02:42:29;;;;;;;1999.90;999.90;;;14.90;99.90;;;;;;5016999;28;20095;-84
2022/10/30 02:44:54;;;;;;;1999.90;999.90;;;14.90;99.90;;;;;;5034558;28;20480;-83
2022/10/30 02:47:20;;;;;;;1999.90;999.90;;;15.00;99.90;;;;;;5034674;28;20452;-84
2022/10/30 02:49:46;;;;;;;1999.90;999.90;;;15.00;99.90;;;;;;5034796;28;20155;-83
2022/10/30 02:52:11;;;;;;;1999.90;999.90;;;15.00;99.90;;;;;;5034477;28;20489;-84
2022/10/30 02:54:37;;;;;;;1999.90;999.90;;;15.00;99.90;;;;;;5030279;28;20581;-84
2022/10/30 02:57:03;;;;;;;1999.90;999.90;;;14.90;99.90;;;;;;5033901;28;20024;-84
2022/10/30 02:59:29;;;;;;;1999.90;999.90;;;14.90;99.90;;;;;;5016236;28;20037;-84
2022/10/30 03:01:54;;;;;;;1999.90;999.90;;;14.90;99.90;;;;;;5034581;28;20152;-84
2022/10/30 03:04:20;;;;;;;1999.90;999.90;;;14.90;99.90;;;;;;5034505;28;20097;-84
2022/10/30 03:06:46;;;;;;;1999.90;999.90;;;14.90;99.90;;;;;;5034209;28;20021;-84
2022/10/30 03:09:11;;;;;;;1999.90;999.90;;;14.90;99.90;;;;;;5034039;28;20119;-84
2022/10/30 03:11:37;;;;;;;1999.90;999.90;;;14.90;99.90;;;;;;5034091;28;20036;-83
2022/10/30 03:14:03;;;;;;;1999.90;999.90;;;14.90;99.90;;;;;;5033418;28;20022;-83
2022/10/30 03:16:29;;;;;;;1999.90;999.90;;;14.80;99.90;;;;;;5032347;28;20473;-84
2022/10/30 03:18:56;;;;;;;1999.90;999.90;;;14.80;99.90;;;;;;5034048;28;20022;-84
2022/10/30 03:21:24;;;;;;;1999.90;999.90;;;14.80;99.90;;;;;;5033792;28;20072;-84
2022/10/30 03:23:51;;;;;;;1999.90;999.90;;;14.80;99.90;;;;;;5033926;28;20083;-84
2022/10/30 03:26:17;;;;;;;1999.90;999.90;;;14.80;99.90;;;;;;5033990;28;20468;-84
2022/10/30 03:28:43;;;;;;;1999.90;999.90;;;14.80;99.90;;;;;;5032817;28;20025;-84
2022/10/30 03:31:11;;;;;;;1999.90;999.90;;;14.90;99.90;;;;;;5033811;28;20511;-84
2022/10/30 03:33:37;;;;;;;1999.90;999.90;;;14.90;99.90;;;;;;5033718;28;20048;-84
2022/10/30 03:36:04;;;;;;;1999.90;999.90;;;14.80;99.90;;;;;;5032657;28;20432;-84
2022/10/30 03:38:30;;;;;;;1999.90;999.90;;;14.90;99.90;;;;;;5015170;28;20028;-84
2022/10/30 03:40:56;;;;;;;1999.90;999.90;;;14.90;99.90;;;;;;5033056;28;20033;-84
2022/10/30 03:43:22;;;;;;;1999.90;999.90;;;14.90;99.90;;;;;;5033558;28;20029;-84
2022/10/30 03:45:52;;;;;;;1999.90;999.90;;;14.90;99.90;;;;;;5033587;28;20075;-85
2022/10/30 03:48:21;;;;;;;1999.90;999.90;;;14.90;99.90;;;;;;5033882;28;20404;-84
2022/10/30 03:50:47;;;;;;;1999.90;999.90;;;14.90;99.90;;;;;;5033197;28;20392;-84
2022/10/30 03:53:13;;;;;;;1999.90;999.90;;;15.00;99.90;;;;;;5015573;28;20045;-84
2022/10/30 03:55:40;;;;;;;1999.90;999.90;;;15.00;99.90;;;;;;5032140;28;20025;-84
2022/10/30 03:58:06;;;;;;;1999.90;999.90;;;15.00;99.90;;;;;;5033494;28;20107;-84
2022/10/30 04:00:34;;;;;;;1999.90;999.90;;;15.10;99.90;;;;;;5033289;28;20021;-83
2022/10/30 04:03:00;;;;;;;1999.90;999.90;;;15.10;99.90;;;;;;5033234;28;20033;-84
2022/10/30 04:05:27;;;;;;;1999.90;999.90;;;15.10;99.90;;;;;;5015425;28;20132;-84
2022/10/30 04:08:00;;;;;;;1999.90;999.90;;;15.10;99.90;;;;;;5015311;28;20120;-84
2022/10/30 04:10:27;;;;;;;1999.90;999.90;;;15.00;99.90;;;;;;5032333;28;20032;-84
2022/10/30 04:12:58;;;;;;;1999.90;999.90;;;15.10;99.90;;;;;;5032747;28;20025;-84
2022/10/30 04:15:24;;;;;;;1999.90;999.90;;;15.10;99.90;;;;;;5031915;28;20021;-84
2022/10/30 04:17:50;;;;;;;1999.90;999.90;;;15.10;99.90;;;;;;5031371;28;20029;-84
2022/10/30 04:20:18;;;;;;;1999.90;999.90;;;15.10;99.90;;;;;;5015277;28;20104;-84
2022/10/30 04:22:43;;;;;;;1999.90;999.90;;;15.10;99.90;;;;;;5032487;28;20022;-84
2022/10/30 04:25:09;;;;;;;1999.90;999.90;;;15.10;99.90;;;;;;5032426;28;20033;-84
2022/10/30 04:27:42;;;;;;;1999.90;999.90;;;15.10;99.90;;;;;;5014810;28;20034;-84
2022/10/30 04:30:09;;;;;;;1999.90;999.90;;;15.10;99.90;;;;;;5032219;28;20026;-84
2022/10/30 04:32:35;;;;;;;1999.90;999.90;;;15.10;99.90;;;;;;5032665;28;20404;-84
2022/10/30 04:35:03;;;;;;;1999.90;999.90;;;15.10;99.90;;;;;;5020927;28;20018;-84
2022/10/30 04:37:29;;;;;;;1999.90;999.90;;;15.10;99.90;;;;;;5011660;28;20523;-84
2022/10/30 04:39:54;;;;;;;1999.90;999.90;;;15.10;99.90;;;;;;5012579;28;20485;-84
2022/10/30 04:42:20;;;;;;;1999.90;999.90;;;15.10;99.90;;;;;;5013063;28;20026;-84
2022/10/30 04:44:46;;;;;;;1999.90;999.90;;;15.10;99.90;;;;;;5012730;28;20478;-84
2022/10/30 04:47:11;;;;;;;1999.90;999.90;;;15.10;99.90;;;;;;5012607;28;20034;-84
2022/10/30 04:49:37;;;;;;;1999.90;999.90;;;15.20;99.90;;;;;;4995080;28;20092;-84
2022/10/30 04:52:02;;;;;;;1999.90;999.90;;;15.20;99.90;;;;;;5012542;28;20080;-84
2022/10/30 04:54:28;;;;;;;1999.90;999.90;;;15.20;99.90;;;;;;5020549;28;20046;-84
2022/10/30 04:56:54;;;;;;;1999.90;999.90;;;15.30;99.90;;;;;;5032189;28;20499;-84
2022/10/30 04:59:19;;;;;;;1999.90;999.90;;;15.20;99.90;;;;;;5032280;28;20033;-84
2022/10/30 05:01:45;;;;;;;1999.90;999.90;;;15.30;99.90;;;;;;5032391;28;20032;-84
2022/10/30 05:04:10;;;;;;;1999.90;999.90;;;15.30;99.90;;;;;;5032504;28;20439;-84
2022/10/30 05:06:37;;;;;;;1999.90;999.90;;;15.40;99.90;;;;;;5014550;28;20061;-84
2022/10/30 05:09:02;;;;;;;1999.90;999.90;;;15.40;99.90;;;;;;5032373;28;20022;-84
2022/10/30 05:11:28;;;;;;;1999.90;999.90;;;15.40;99.90;;;;;;5032081;28;20143;-84
2022/10/30 05:13:54;;;;;;;1999.90;999.90;;;15.40;99.90;;;;;;5010362;28;20029;-84
2022/10/30 05:16:20;;;;;;;1999.90;999.90;;;15.50;99.90;;;;;;5012671;28;20125;-84
2022/10/30 05:18:45;;;;;;;1999.90;999.90;;;15.50;99.90;;;;;;5011267;28;20057;-84
2022/10/30 05:21:11;;;;;;;1999.90;999.90;;;15.50;99.90;;;;;;5013683;28;20489;-84
2022/10/30 05:23:37;;;;;;;1999.90;999.90;;;15.50;99.90;;;;;;5016287;28;20479;-84
2022/10/30 05:26:03;;;;;;;1999.90;999.90;;;15.50;99.90;;;;;;5016353;28;20116;-84
2022/10/30 05:28:28;;;;;;;1999.90;999.90;;;15.60;99.90;;;;;;5016314;28;20087;-84
2022/10/30 05:30:54;;;;;;;1999.90;999.90;;;15.50;99.90;;;;;;5015724;28;20030;-84
2022/10/30 05:33:20;;;;;;;1999.90;999.90;;;15.50;99.90;;;;;;5015871;28;20444;-83
2022/10/30 05:35:46;;;;;;;1999.90;999.90;;;15.50;99.90;;;;;;5015462;28;20033;-84
2022/10/30 05:38:12;;;;;;;1999.90;999.90;;;15.60;99.90;;;;;;5016154;28;20053;-84
2022/10/30 05:40:37;;;;;;;1999.90;999.90;;;15.60;99.90;;;;;;5016203;28;20038;-84
2022/10/30 05:43:04;;;;;;;1999.90;999.90;;;15.60;99.90;;;;;;4998491;28;20033;-84
2022/10/30 05:45:30;;;;;;;1999.90;999.90;;;15.70;99.90;;;;;;5016035;28;20096;-84
2022/10/30 05:47:58;;;;;;;1999.90;999.90;;;15.70;99.90;;;;;;5015984;28;20057;-84
2022/10/30 05:50:24;;;;;;;1999.90;999.90;;;15.70;99.90;;;;;;5016088;28;20030;-84
2022/10/30 05:53:01;;;;;;;1999.90;999.90;;;15.80;99.90;;;;;;5015335;28;20125;-84
2022/10/30 05:55:27;;;;;;;1999.90;999.90;;;15.80;99.90;;;;;;5014887;28;20022;-84
2022/10/30 05:58:00;;;;;;;1999.90;999.90;;;15.80;99.90;;;;;;5015998;28;20550;-84
2022/10/30 06:00:28;;;;;;;1999.90;999.90;;;15.80;99.90;;;;;;5016003;28;20073;-84
2022/10/30 06:03:01;;;;;;;1999.90;999.90;;;15.80;99.90;;;;;;5015666;28;20026;-84
2022/10/30 06:05:28;;;;;;;;;;;15.70;99.90;;;;;;5016186;28;20551;-84
2022/10/30 06:07:55;;;;;;;1999.90;999.90;;;15.70;99.90;;;;;;5015521;28;19909;-84
2022/10/30 06:10:22;;;;;;;1999.90;999.90;;;15.60;99.90;;;;;;5015179;28;20053;-84
2022/10/30 06:12:55;;;;;;;1999.90;999.90;;;15.60;99.90;;;;;;5015113;28;20036;-84
2022/10/30 06:15:21;;;;;;;1999.90;999.90;;;15.60;99.90;;;;;;5031076;28;20049;-84
2022/10/30 06:17:47;;;;;;;1999.90;999.90;;;15.50;99.90;;;;;;5017429;28;20026;-84
2022/10/30 06:20:13;;;;;;;1999.90;999.90;;;15.50;99.90;;;;;;5017688;28;20022;-84
2022/10/30 06:22:39;;;;;;;1999.90;999.90;;;15.40;99.90;;;;;;5034682;28;20543;-84
2022/10/30 06:25:05;;;;;;;1999.90;999.90;;;15.40;99.90;;;;;;5016994;28;20025;-84
2022/10/30 06:27:33;;;;;;;1999.90;999.90;;;15.40;99.90;;;;;;5017281;28;20035;-84
2022/10/30 06:29:59;;;;;;;1999.90;999.90;;;15.40;99.90;;;;;;5034258;28;20244;-84
2022/10/30 06:32:25;;;;;;;1999.90;999.90;;;15.40;99.90;;;;;;5034268;28;20554;-84
2022/10/30 06:34:50;;;;;;;1999.90;999.90;;;15.30;99.90;;;;;;5001366;28;20030;-84
2022/10/30 06:37:16;;;;;;;1999.90;999.90;;;15.30;99.90;;;;;;5014876;28;20026;-84
2022/10/30 06:39:42;;;;;;;1999.90;999.90;;;15.30;99.90;;;;;;4997062;28;20068;-84
2022/10/30 06:42:08;;;;;;;1999.90;999.90;;;15.30;99.90;;;;;;4997527;28;20132;-84
2022/10/30 06:44:34;;;;;;;1999.90;999.90;;;15.30;99.90;;;;;;5015093;28;20022;-84
2022/10/30 06:46:59;;;;;;;1999.90;999.90;;;15.30;99.90;;;;;;5014736;28;20034;-84
2022/10/30 06:49:25;;;;;;;1999.90;999.90;;;15.20;99.90;;;;;;4997035;28;20431;-84
2022/10/30 06:51:51;;;;;;;1999.90;999.90;;;15.20;99.90;;;;;;4996981;28;20033;-84
2022/10/30 06:54:16;;;;;;;1999.90;999.90;;;15.30;99.90;;;;;;5025190;28;20038;-84
2022/10/30 06:56:42;;;;;;;1999.90;999.90;;;15.30;99.90;;;;;;5034235;28;20024;-84
2022/10/30 06:59:09;;;;;;;1999.90;999.90;;;15.20;99.90;;;;;;5016632;28;20026;-84
2022/10/30 07:01:34;;;;;;;1999.90;999.90;;;15.30;99.90;;;;;;5016561;28;20021;-84
2022/10/30 07:04:00;;;;;;;1999.90;999.90;;;15.30;99.90;;;;;;5034334;28;20076;-84
2022/10/30 07:06:26;;;;;;;1999.90;999.90;;;15.30;99.90;;;;;;5034344;28;20033;-84
2022/10/30 07:08:51;;;;;;;1999.90;999.90;;;15.20;99.90;;;;;;5033873;28;20095;-84
2022/10/30 07:11:18;;;;;;;1999.90;999.90;;;15.30;99.90;;;;;;5034318;28;20026;-84
2022/10/30 07:13:44;;;;;;;1999.90;999.90;;;15.30;99.90;;;;;;5025326;28;20401;-84
2022/10/30 07:16:10;;;;;;;1999.90;999.90;;;15.30;99.90;;;;;;5014421;28;20034;-84
2022/10/30 07:18:35;;;;;;;1999.90;999.90;;;15.20;99.90;;;;;;5014165;28;20037;-84
2022/10/30 07:21:01;;;;;;;1999.90;999.90;;;15.30;99.90;;;;;;5013714;28;20075;-84
2022/10/30 07:23:26;;;;;;;1999.90;999.90;;;15.20;99.90;;;;;;5013498;28;20026;-84
2022/10/30 07:25:52;;;;;;;1999.90;999.90;;;15.20;99.90;;;;;;5014052;28;20064;-84
2022/10/30 07:28:18;;;;;;;1999.90;999.90;;;15.20;99.90;;;;;;4996578;28;20465;-84
2022/10/30 07:30:43;;;;;;;1999.90;999.90;;;15.20;99.90;;;;;;5013431;28;20065;-84
2022/10/30 07:33:09;;;;;;;1999.90;999.90;;;15.20;99.90;;;;;;4997485;28;20237;-84
2022/10/30 07:35:35;;;;;;;1999.90;999.90;;;15.30;99.90;;;;;;5033818;28;20033;-84
2022/10/30 07:38:05;;;;;;;1999.90;999.90;;;15.20;99.90;;;;;;5033631;28;20399;-83
2022/10/30 07:40:32;;;;;;;1999.90;999.90;;;15.30;99.90;;;;;;5034172;28;20035;-84
2022/10/30 07:42:59;;;;;;;1999.90;999.90;;;15.30;99.90;;;;;;5015801;28;20508;-84
2022/10/30 07:45:26;;;;;;;1999.90;999.90;;;15.30;99.90;;;;;;5014876;28;20025;-84
2022/10/30 07:47:51;;;;;;;1999.90;999.90;;;15.30;99.90;;;;;;5033535;28;20037;-84
2022/10/30 07:50:17;;;;;;;1999.90;999.90;;;15.30;99.90;;;;;;5033698;28;20374;-84
2022/10/30 07:52:43;;;;;;;1999.90;999.90;;;15.30;99.90;;;;;;5032752;28;20571;-84
2022/10/30 07:55:09;;;;;;;1999.90;999.90;;;15.40;99.90;;;;;;5013809;28;20088;-84
2022/10/30 07:57:39;;;;;;;1999.90;999.90;;;15.50;99.90;;;;;;5013224;28;20026;-84
2022/10/30 08:00:09;;;;;;;1999.90;999.90;;;15.60;99.90;;;;;;5013589;28;20022;-84
2022/10/30 08:02:35;;;;;;;1999.90;999.90;;;15.60;99.90;;;;;;5013480;28;20030;-84
2022/10/30 08:05:00;;;;;;;1999.90;999.90;;;15.60;99.90;;;;;;4995850;28;20091;-84
2022/10/30 08:07:30;;;;;;;1999.90;999.90;;;15.60;99.90;;;;;;5013219;28;20041;-84
2022/10/30 08:09:56;;;;;;;1999.90;999.90;;;15.60;99.90;;;;;;5013404;28;20025;-84
2022/10/30 08:12:21;;;;;;;1999.90;999.90;;;15.60;99.90;;;;;;5013000;28;20448;-84
2022/10/30 08:14:48;;;;;;;1999.90;999.90;;;15.60;99.90;;;;;;5012339;28;20026;-83
2022/10/30 08:17:13;;;;;;;1999.90;999.90;;;15.60;99.90;;;;;;4995422;28;20397;-84
2022/10/30 08:19:39;;;;;;;1999.90;999.90;;;15.60;99.90;;;;;;5013149;28;20480;-84
2022/10/30 08:22:05;;;;;;;1999.90;999.90;;;15.60;99.90;;;;;;5013181;28;20026;-84
2022/10/30 08:24:30;;;;;;;1999.90;999.90;;;15.60;99.90;;;;;;5013192;28;20030;-84
2022/10/30 08:26:56;;;;;;;1999.90;999.90;;;15.50;99.90;;;;;;4995298;28;20021;-84
2022/10/30 08:29:22;;;;;;;1999.90;999.90;;;15.50;99.90;;;;;;5013007;28;20030;-84
2022/10/30 08:31:48;;;;;;;1999.90;999.90;;;15.50;99.90;;;;;;5012234;28;20030;-84
2022/10/30 08:34:14;;;;;;;1999.90;999.90;;;15.50;99.90;;;;;;5012481;28;20034;-84
2022/10/30 08:36:40;;;;;;;1999.90;999.90;;;15.50;99.90;;;;;;5012746;28;20401;-84
2022/10/30 08:39:05;;;;;;;1999.90;999.90;;;15.50;99.90;;;;;;5012878;28;20466;-84
2022/10/30 08:41:31;;;;;;;1999.90;999.90;;;15.50;99.90;;;;;;4995048;28;20033;-84
2022/10/30 08:43:56;;;;;;;1999.90;999.90;;;15.60;99.90;;;;;;5012979;28;20065;-84
2022/10/30 08:46:22;;;;;;;1999.90;999.90;;;15.60;99.90;;;;;;5013050;28;20456;-84
2022/10/30 08:48:48;;;;;;;1999.90;999.90;;;15.60;99.90;;;;;;4994999;28;20394;-84
2022/10/30 08:51:13;;;;;;;1999.90;999.90;;;15.60;99.90;;;;;;4995052;28;20483;-84
2022/10/30 08:53:39;;;;;;;1999.90;999.90;;;15.60;99.90;;;;;;5011837;28;20524;-84
2022/10/30 08:56:05;;;;;;;1999.90;999.90;;;15.60;99.90;;;;;;5012312;28;20025;-84
2022/10/30 08:58:31;;;;;;;1999.90;999.90;;;15.70;99.90;;;;;;5012576;28;20025;-84
2022/10/30 09:00:56;;;;;;;1999.90;999.90;;;15.80;99.90;;;;;;5012619;28;20026;-84
2022/10/30 09:03:22;;;;;;;1999.90;999.90;;;15.70;99.90;;;;;;5012515;28;20113;-85
2022/10/30 09:05:48;;;;;;;1999.90;999.90;;;15.70;99.90;;;;;;5012300;28;20030;-84
2022/10/30 09:08:14;;;;;;;1999.90;999.90;;;15.70;99.90;;;;;;4995056;28;20033;-84
2022/10/30 09:10:40;;;;;;;1999.90;999.90;;;15.70;99.90;;;;;;5012537;28;20026;-84
2022/10/30 09:13:06;;;;;;;1999.90;999.90;;;15.70;99.90;;;;;;5011808;28;20030;-84
2022/10/30 09:15:32;;;;;;;1999.90;999.90;;;15.70;99.90;;;;;;4994633;28;20108;-84
2022/10/30 09:18:00;;;;;;;1999.90;999.90;;;15.60;99.90;;;;;;4994464;28;20469;-84
2022/10/30 09:20:26;;;;;;;1999.90;999.90;;;15.50;99.90;;;;;;5012098;28;20026;-84
2022/10/30 09:22:52;;;;;;;1999.90;999.90;;;15.30;99.90;;;;;;5011980;28;20030;-84
2022/10/30 09:25:18;;;;;;;1999.90;999.90;;;15.20;99.90;;;;;;5012147;28;20449;-84
2022/10/30 09:27:44;;;;;;;1999.90;999.90;;;15.20;99.90;;;;;;5012502;28;20436;-84
2022/10/30 09:30:11;;;;;;;1999.90;999.90;;;15.10;99.90;;;;;;4994471;28;20493;-84
2022/10/30 09:32:36;;;;;;;1999.90;999.90;;;15.00;99.90;;;;;;5016882;28;20080;-84
2022/10/30 09:35:02;;;;;;;1999.90;999.90;;;15.00;99.90;;;;;;5011990;28;20022;-84
2022/10/30 09:37:28;;;;;;;1999.90;999.90;;;15.00;99.90;;;;;;5012184;28;20096;-84
2022/10/30 09:39:54;;;;;;;1999.90;999.90;;;15.00;99.90;;;;;;5011774;28;20105;-83
2022/10/30 09:42:48;;;;;;;1999.90;999.90;;;15.00;99.90;;;;;;5012561;28;20076;-83
2022/10/30 09:45:29;;;;;;;1999.90;999.90;;;15.00;99.90;;;;;;4994462;28;20026;-83
2022/10/30 09:48:04;;;;;;;1999.90;999.90;;;15.00;99.90;;;;;;4994406;28;20030;-84
2022/10/30 09:50:36;;;;;;;1999.90;999.90;;;15.10;99.90;;;;;;5012172;28;20501;-83
2022/10/30 09:53:30;;;;;;;1999.90;999.90;;;15.10;99.90;;;;;;5010959;28;20460;-83
2022/10/30 09:56:32;;;;;;;1999.90;999.90;;;15.10;99.90;;;;;;4994518;28;20272;-83
2022/10/30 09:59:16;;;;;;;1999.90;999.90;;;15.10;99.90;;;;;;4993328;28;20026;-83
2022/10/30 10:02:13;;;;;;;1999.90;999.90;;;15.10;99.90;;;;;;5012081;28;20167;-83
2022/10/30 10:04:45;;;;;;;1999.90;999.90;;;15.20;99.90;;;;;;4994602;28;20453;-84
2022/10/30 10:07:40;;;;;;;1999.90;999.90;;;15.10;99.90;;;;;;4994218;28;20427;-82
2022/10/30 10:10:14;;;;;;;1999.90;999.90;;;15.10;99.90;;;;;;5015757;28;20580;-82
2022/10/30 10:12:46;;;;;;;1999.90;999.90;;;15.20;99.90;;;;;;4996677;28;20080;-82
2022/10/30 10:15:35;;;;;;;1999.90;999.90;;;15.20;99.90;;;;;;4997817;28;20032;-83
2022/10/30 10:18:03;;;;;;;1999.90;999.90;;;15.20;99.90;;;;;;4990009;28;20061;-82
2022/10/30 10:20:44;;;;;;;1999.90;999.90;;;15.30;99.90;;;;;;5015240;28;20026;-83
2022/10/30 10:23:30;;;;;;;1999.90;999.90;;;15.40;99.90;;;;;;5014425;28;20022;-83
2022/10/30 10:26:00;;;;;;;1999.90;999.90;;;15.50;99.90;;;;;;5015111;28;20034;-83
2022/10/30 10:28:47;;;;;;;1999.90;999.90;;;15.60;99.90;;;;;;5015722;28;20443;-83
2022/10/30 10:31:19;;;;;;;1999.90;999.90;;;15.70;99.90;;;;;;5015202;28;20489;-83
2022/10/30 10:33:56;;;;;;;1999.90;999.90;;;15.70;99.90;;;;;;5013612;28;20374;-83
2022/10/30 10:36:45;;;;;;;1999.90;999.90;;;15.80;99.90;;;;;;4997521;28;20030;-82
2022/10/30 10:39:26;;;;;;;1999.90;999.90;;;15.80;99.90;;;;;;5014307;28;20057;-83
2022/10/30 10:42:04;;;;;;;1999.90;999.90;;;15.90;99.90;;;;;;5014902;28;20034;-83
2022/10/30 10:45:17;;;;;;;1999.90;999.90;;;15.90;99.90;;;;;;4997482;28;20042;-83
2022/10/30 10:48:06;;;;;;;1999.90;999.90;;;15.90;99.90;;;;;;4954279;29;20546;-84
2022/10/30 10:50:41;;;;;;;1999.90;999.90;;;15.90;99.90;;;;;;4938456;29;20062;-84
2022/10/30 10:53:26;;;;;;;1999.90;999.90;;;16.00;99.90;;;;;;4953079;29;20134;-84
2022/10/30 10:55:56;;;;;;;1999.90;999.90;;;15.80;99.90;;;;;;4954074;29;20495;-84
2022/10/30 10:58:32;;;;;;;1999.90;999.90;;;15.80;99.90;;;;;;4954335;29;20110;-84
2022/10/30 11:00:58;;;;;;;1999.90;999.90;;;15.80;99.90;;;;;;4954207;29;20023;-84
2022/10/30 11:03:31;;;;;;;1999.90;999.90;;;15.80;99.90;;;;;;4954173;29;20031;-84
2022/10/30 11:06:17;;;;;;;;;;;15.80;99.90;;;;;;4954412;29;20086;-84
2022/10/30 11:08:42;;;;;;;1999.90;999.90;;;15.90;99.90;;;;;;4937680;29;20360;-84
2022/10/30 11:11:08;;;;;;;1999.90;999.90;;;16.00;99.90;;;;;;4954062;29;20081;-85
2022/10/30 11:13:42;;;;;;;1999.90;999.90;;;16.00;99.90;;;;;;4952891;29;20066;-84
2022/10/30 11:16:26;;;;;;;1999.90;999.90;;;16.00;99.90;;;;;;4937847;29;20042;-84
2022/10/30 11:18:56;;;;;;;1999.90;999.90;;;16.00;99.90;;;;;;4937532;29;20027;-84
2022/10/30 11:21:24;;;;;;;1999.90;999.90;;;16.00;99.90;;;;;;4963087;28;20038;-84
2022/10/30 11:23:50;;;;;;;1999.90;999.90;;;16.00;99.90;;;;;;4974908;28;20109;-84
2022/10/30 11:26:16;;;;;;;1999.90;999.90;;;16.00;99.90;;;;;;4975311;28;20031;-84
2022/10/30 11:28:47;;;;;;;1999.90;999.90;;;16.00;99.90;;;;;;4975230;28;20027;-84
2022/10/30 11:31:21;;;;;;;1999.90;999.90;;;16.10;99.90;;;;;;4975060;28;20059;-84
2022/10/30 11:33:48;;;;;;;1999.90;999.90;;;16.10;99.90;;;;;;5011830;28;20080;-84
2022/10/30 11:36:16;;;;;;;1999.90;999.90;;;16.10;99.90;;;;;;5013844;28;20018;-84
2022/10/30 11:38:42;;;;;;;1999.90;999.90;;;16.30;99.90;;;;;;5013854;28;20034;-84
2022/10/30 11:41:09;;;;;;;1999.90;999.90;;;16.30;99.90;;;;;;5012697;28;20248;-84
2022/10/30 11:43:37;;;;;;;1999.90;999.90;;;16.30;99.90;;;;;;5014080;28;20065;-84
2022/10/30 11:46:08;;;;;;;1999.90;999.90;;;16.30;99.90;;;;;;5013952;28;20021;-84
2022/10/30 11:48:36;;;;;;;1999.90;999.90;;;16.30;99.90;;;;;;5012721;28;20040;-84
2022/10/30 11:51:02;;;;;;;1999.90;999.90;;;16.30;99.90;;;;;;5012499;28;20038;-85
2022/10/30 11:53:47;;;;;;;1999.90;999.90;;;16.40;99.90;;;;;;5004470;28;20057;-84
2022/10/30 11:56:21;;;;;;;1999.90;999.90;;;16.50;99.90;;;;;;5013616;28;20022;-85
2022/10/30 11:58:53;;;;;;;1999.90;999.90;;;16.70;99.90;;;;;;5013691;28;20040;-84
2022/10/30 12:01:28;;;;;;;1999.90;999.90;;;17.00;99.90;;;;;;5013542;28;20075;-85
2022/10/30 12:03:55;;;;;;;1999.90;999.90;;;17.30;99.90;;;;;;5013485;28;20101;-84
2022/10/30 12:06:24;;;;;;;1999.90;999.90;;;17.50;99.90;;;;;;4996016;28;20037;-85
2022/10/30 12:09:18;;;;;;;1999.90;999.90;;;17.70;99.90;;;;;;5013531;28;20457;-84
2022/10/30 12:11:44;;;;;;;1999.90;999.90;;;17.60;99.90;;;;;;5013743;28;20025;-84